METAR Data
IDs: Format: Raw Decoded Include TAF

Data at: 0106 UTC 06 Dec 2019

KCKV 060052Z AUTO 15003KT 10SM OVC120 11/02 A3008 RMK AO2 SLP189 T01110017
KCKV 052352Z AUTO 17004KT 10SM CLR 13/01 A3007 RMK AO2 SLP185 T01330006 10172 20128 53004
KCKV 052252Z AUTO 17003KT 10SM CLR 14/00 A3007 RMK AO2 SLP183 T01390000
KCKV 052152Z AUTO 18004KT 10SM CLR 14/01 A3006 RMK AO2 SLP181 T01440011
KCKV 052052Z AUTO 16006KT 10SM CLR 17/01 A3006 RMK AO2 SLP180 T01670011 56016
KCKV 051952Z AUTO VRB03KT 10SM CLR 17/01 A3006 RMK AO2 SLP181 T01670006
KCKV 051852Z AUTO 20006KT 10SM CLR 16/01 A3008 RMK AO2 SLP187 T01610006
KCKV 051752Z AUTO 19006KT 10SM CLR 15/01 A3011 RMK AO2 SLP195 T01500006 10150 21017 58010
KCKV 051652Z AUTO 17007KT 10SM CLR 13/01 A3013 RMK AO2 SLP203 T01280011
KCKV 051552Z AUTO 17005KT 10SM CLR 11/03 A3014 RMK AO2 SLP208 T01060028
KCKV 051452Z AUTO 00000KT 10SM CLR 06/02 A3014 RMK AO2 SLP208 T00560022 51020
KCKV 051352Z AUTO 00000KT 10SM CLR 01/00 A3013 RMK AO2 SLP204 T00110000
KCKV 051252Z AUTO 00000KT 10SM CLR M02/M03 A3011 RMK AO2 SLP197 T10171028
KCKV 051152Z AUTO 00000KT 10SM CLR M02/M02 A3008 RMK AO2 SLP188 T10171022 10061 21017 53008
KCKV 051052Z AUTO 27003KT 10SM CLR 00/M02 A3006 RMK AO2 SLP182 T00001022
KCKV 050952Z AUTO 09004KT 10SM CLR 00/M01 A3004 RMK AO2 SLP175 T00001011
KCKV 050852Z AUTO 00000KT 10SM CLR 01/M02 A3005 RMK AO2 SLP177 T00111017 53010
KCKV 050752Z AUTO 00000KT 10SM CLR 03/M01 A3004 RMK AO2 SLP173 T00281006
KCKV 050652Z AUTO 06003KT 10SM CLR 02/M01 A3003 RMK AO2 SLP168 T00221011
KCKV 050552Z AUTO 26004KT 10SM CLR 06/00 A3002 RMK AO2 SLP167 T00610000 10106 20061 401500022 53009
KCKV 050452Z AUTO 25004KT 10SM CLR 07/00 A3001 RMK AO2 SLP163 T00670000
KCKV 050352Z AUTO 24006KT 10SM CLR 07/M01 A2999 RMK AO2 SLP158 T00671006
KCKV 050252Z AUTO 28005KT 10SM CLR 07/M01 A2999 RMK AO2 SLP158 T00671006 53013
KCKV 050152Z AUTO 24004KT 10SM CLR 09/M01 A2997 RMK AO2 SLP150 T00891006
KCKV 050052Z AUTO 27006KT 10SM CLR 09/M01 A2996 RMK AO2 SLP147 T00891011
KCKV 042352Z AUTO 00000KT 10SM CLR 10/M02 A2995 RMK AO2 SLP144 T01001017 10150 20094 51015
KCKV 042252Z AUTO 28006KT 10SM CLR 11/M02 A2994 RMK AO2 SLP140 T01061017
KCKV 042152Z AUTO 29006KT 10SM CLR 13/M01 A2992 RMK AO2 SLP133 T01331011
KCKV 042052Z AUTO 32012KT 10SM CLR 14/M02 A2991 RMK AO2 SLP129 T01441017 53003
KCKV 041952Z AUTO 29009KT 10SM CLR 14/M02 A2989 RMK AO2 SLP121 T01441017
KCKV 041852Z AUTO 30014KT 10SM CLR 14/M01 A2989 RMK AO2 SLP122 T01441011
KCKV 041752Z AUTO 27009KT 10SM CLR 13/M01 A2990 RMK AO2 SLP126 T01331011 10133 20022 50000
KCKV 041652Z AUTO 29012KT 10SM CLR 12/M01 A2993 RMK AO2 SLP135 T01171006
KCKV 041552Z AUTO 28011KT 10SM CLR 09/01 A2992 RMK AO2 SLP134 T00940006
KCKV 041452Z AUTO 10SM CLR 07/01 A2990 RMK AO2 SLP127 T00720011 51011
KCKV 041352Z AUTO 26006KT 10SM CLR 04/01 A2989 RMK AO2 SLP125 T00390006